Augusta, Illinois
Current Conditions -  °F | °C
As of 1:54 PM on Sunday 21 Dec 2014 (Local Time) from KUIN Reporting Station
Overcast Overcast  
Wind Chill: 38°   Ceiling: 3600
Heat Index: 44°   Visibility: 10mi
Dew Point: 35°   Wind: 13mph
Humidity: 71%   Direction: 160°SSE
Pressure: 29.97"   Gusts: NA
Location:  40.23°N, 90.95°W
Report Text: KUIN 211954Z AUTO 16011KT 10SM FEW022 OVC036 07/02 A2997 RMK AO2 SLP152 T00670017
Loading
Personal Weather Stations






























Interactive Weather Map New forecast layout! Learn more

10-Day Weather Forecast

Advertisements
Track Severe Weather on mobile